createdAt,value
2022-09-26T00:00:49.455Z,26.81
2022-09-26T00:02:05.172Z,31.00
2022-09-26T00:03:05.718Z,31.19
2022-09-26T00:04:23.708Z,31.56
2022-09-26T00:05:27.263Z,31.50
2022-09-26T00:06:31.359Z,33.13
2022-09-26T00:07:35.211Z,25.06
2022-09-26T00:08:41.201Z,22.25
2022-09-26T00:09:45.236Z,21.87
2022-09-26T00:10:58.839Z,19.19
2022-09-26T00:12:06.064Z,18.31
2022-09-26T00:15:00.878Z,16.12
2022-09-26T00:17:16.635Z,19.50
2022-09-26T00:19:46.943Z,17.87
2022-09-26T00:21:34.051Z,19.00
2022-09-26T00:23:37.361Z,21.62
2022-09-26T00:26:01.626Z,5.62
2022-09-26T00:29:09.675Z,19.87
2022-09-26T00:30:27.972Z,19.56
2022-09-26T00:34:11.801Z,19.00
2022-09-26T00:35:31.049Z,16.62
2022-09-26T00:36:38.500Z,18.50
2022-09-26T00:40:17.611Z,19.12
2022-09-26T00:42:08.895Z,18.31
2022-09-26T00:44:53.699Z,19.06
2022-09-26T00:47:47.167Z,16.44
2022-09-26T00:49:10.879Z,16.25
2022-09-26T00:51:41.046Z,19.00
2022-09-26T00:52:50.839Z,17.44
2022-09-26T00:53:57.977Z,17.75
2022-09-26T00:55:07.689Z,16.69
2022-09-26T00:58:08.041Z,20.37
2022-09-26T00:59:54.702Z,16.25
2022-09-26T01:01:36.550Z,16.56
2022-09-26T01:02:54.206Z,20.06
2022-09-26T01:04:10.002Z,18.44
2022-09-26T01:05:24.222Z,20.44
2022-09-26T01:06:55.105Z,18.75
2022-09-26T01:08:44.923Z,19.37
2022-09-26T01:10:54.835Z,20.00
2022-09-26T01:11:40.013Z,18.62
2022-09-26T01:12:45.628Z,17.40
2022-09-26T01:13:57.408Z,17.19
2022-09-26T01:18:25.859Z,15.75
2022-09-26T01:19:58.612Z,18.50
2022-09-26T01:20:55.483Z,17.19
2022-09-26T01:24:08.883Z,17.47
2022-09-26T01:25:44.639Z,16.62
2022-09-26T01:28:29.777Z,18.06
2022-09-26T01:29:42.364Z,17.75
2022-09-26T01:33:47.490Z,20.93
2022-09-26T01:35:04.881Z,18.94
2022-09-26T01:36:39.429Z,16.94
2022-09-26T01:39:37.274Z,18.19
2022-09-26T01:40:45.550Z,18.50
2022-09-26T01:43:28.386Z,19.12
2022-09-26T01:44:38.198Z,16.62
2022-09-26T01:45:58.810Z,15.94
2022-09-26T01:47:05.792Z,17.31
2022-09-26T01:48:13.977Z,16.25
2022-09-26T01:49:20.835Z,17.87
2022-09-26T01:50:42.807Z,17.56
2022-09-26T01:51:54.904Z,19.75
2022-09-26T01:53:02.164Z,16.50
2022-09-26T01:54:20.031Z,17.81
2022-09-26T01:55:30.320Z,18.69
2022-09-26T01:56:38.657Z,18.50
2022-09-26T01:57:52.901Z,14.06
2022-09-26T01:58:59.748Z,14.81
2022-09-26T02:00:06.703Z,19.81
2022-09-26T02:01:14.053Z,18.19
2022-09-26T02:02:26.572Z,18.56
2022-09-26T02:03:33.546Z,17.75
2022-09-26T02:04:44.281Z,17.75
2022-09-26T02:06:01.151Z,21.44
2022-09-26T02:07:17.486Z,17.50
2022-09-26T02:08:27.327Z,19.25
2022-09-26T02:09:42.730Z,19.12
2022-09-26T02:10:56.183Z,19.75
2022-09-26T02:12:02.507Z,19.44
2022-09-26T02:13:15.358Z,17.50
2022-09-26T02:14:22.238Z,17.47
2022-09-26T02:15:29.887Z,16.37
2022-09-26T02:16:37.069Z,20.25
2022-09-26T02:17:44.166Z,18.62
2022-09-26T02:19:05.809Z,16.87
2022-09-26T02:20:13.086Z,18.00
2022-09-26T02:21:19.939Z,18.31
2022-09-26T02:22:28.413Z,18.31
2022-09-26T02:23:32.500Z,20.75
2022-09-26T02:24:38.328Z,19.00
2022-09-26T02:25:42.302Z,18.31
2022-09-26T02:26:47.446Z,17.94
2022-09-26T02:27:52.806Z,16.69
2022-09-26T02:28:58.277Z,16.69
2022-09-26T02:30:04.580Z,15.88
2022-09-26T02:31:09.993Z,18.75
2022-09-26T02:32:16.980Z,17.12
2022-09-26T02:33:21.043Z,15.25
2022-09-26T02:34:26.984Z,15.56
2022-09-26T02:35:30.977Z,18.12
2022-09-26T02:36:36.789Z,16.81
2022-09-26T02:37:40.712Z,18.44
2022-09-26T02:38:51.448Z,16.75
2022-09-26T02:40:02.864Z,18.87
2022-09-26T02:42:05.767Z,21.00
2022-09-26T02:45:53.761Z,15.88
2022-09-26T02:47:12.320Z,19.81
2022-09-26T02:48:22.006Z,17.69
2022-09-26T02:50:06.052Z,16.31
2022-09-26T02:51:30.969Z,16.87
2022-09-26T02:52:43.379Z,15.63
2022-09-26T02:54:05.371Z,20.37
2022-09-26T02:55:27.272Z,22.62
2022-09-26T02:56:56.696Z,24.44
2022-09-26T02:58:11.735Z,26.87
2022-09-26T02:59:25.380Z,25.56
2022-09-26T03:00:35.958Z,19.00
2022-09-26T03:02:17.998Z,20.37
2022-09-26T03:05:19.981Z,19.25
2022-09-26T03:06:21.161Z,20.12
2022-09-26T03:11:03.332Z,21.00
2022-09-26T03:13:11.156Z,19.81
2022-09-26T03:14:18.335Z,18.62
2022-09-26T03:15:28.127Z,20.37
2022-09-26T03:16:35.218Z,20.37
2022-09-26T03:17:42.199Z,20.62
2022-09-26T03:18:58.548Z,20.94
2022-09-26T03:20:22.408Z,22.00
2022-09-26T03:21:32.783Z,24.81
2022-09-26T03:22:32.140Z,29.37
2022-09-26T03:25:39.029Z,29.06
2022-09-26T03:32:00.646Z,21.87
2022-09-26T03:33:06.708Z,24.25
2022-09-26T03:34:15.506Z,20.12
2022-09-26T03:35:19.118Z,20.94
2022-09-26T03:36:23.511Z,19.00
2022-09-26T03:37:27.370Z,18.25
2022-09-26T03:38:33.198Z,18.75
2022-09-26T03:39:36.965Z,17.12
2022-09-26T03:40:41.026Z,21.12
2022-09-26T03:41:49.662Z,19.56
2022-09-26T03:42:55.508Z,17.56
2022-09-26T03:46:42.850Z,20.31
2022-09-26T03:47:48.366Z,18.06
2022-09-26T03:48:52.284Z,19.12
2022-09-26T03:49:57.586Z,4.06
2022-09-26T03:51:06.139Z,17.50
2022-09-26T03:52:13.869Z,17.94
2022-09-26T03:53:19.226Z,18.94
2022-09-26T03:54:25.974Z,17.81
2022-09-26T03:56:02.764Z,18.25
2022-09-26T03:56:52.858Z,18.62
2022-09-26T03:57:58.109Z,18.19
2022-09-26T03:59:25.616Z,19.06
2022-09-26T04:00:29.820Z,18.87
2022-09-26T04:01:35.160Z,20.47
2022-09-26T04:02:40.710Z,20.37
2022-09-26T04:04:18.458Z,19.87
2022-09-26T04:04:59.078Z,19.12
2022-09-26T04:06:04.078Z,21.06
2022-09-26T04:07:08.092Z,18.06
2022-09-26T04:08:11.965Z,12.31
2022-09-26T04:09:19.396Z,22.62
2022-09-26T04:10:26.682Z,18.62
2022-09-26T04:11:30.644Z,17.00
2022-09-26T04:12:36.009Z,17.00
2022-09-26T04:13:52.436Z,16.00
2022-09-26T04:14:48.410Z,18.81
2022-09-26T04:15:59.392Z,16.37
2022-09-26T04:18:09.031Z,14.44
2022-09-26T04:19:15.912Z,15.88
2022-09-26T04:20:33.833Z,14.94
2022-09-26T04:21:40.233Z,15.63
2022-09-26T04:23:02.274Z,17.00
2022-09-26T04:26:55.037Z,15.75
2022-09-26T04:29:38.740Z,18.69
2022-09-26T04:33:37.047Z,16.37
2022-09-26T04:34:43.133Z,17.53
2022-09-26T04:35:52.465Z,17.19
2022-09-26T04:37:15.723Z,17.19
2022-09-26T04:41:17.204Z,18.19
2022-09-26T04:42:22.927Z,16.94
2022-09-26T04:43:25.322Z,16.25
2022-09-26T04:44:29.159Z,15.19
2022-09-26T04:45:33.169Z,16.19
2022-09-26T04:46:38.806Z,16.00
2022-09-26T04:47:44.442Z,16.81
2022-09-26T04:48:51.286Z,16.19
2022-09-26T04:49:55.271Z,17.62
2022-09-26T04:53:00.951Z,17.50
2022-09-26T05:07:03.754Z,19.62
2022-09-26T05:09:35.680Z,17.73
2022-09-26T05:10:37.138Z,19.00
2022-09-26T05:11:41.063Z,21.73
2022-09-26T05:12:46.209Z,20.19
2022-09-26T05:13:53.384Z,22.20
2022-09-26T05:14:55.744Z,22.62
2022-09-26T05:16:03.658Z,13.13
2022-09-26T05:17:07.825Z,23.56
2022-09-26T05:18:13.466Z,19.75
2022-09-26T05:19:17.359Z,19.69
2022-09-26T05:20:22.830Z,19.81
2022-09-26T05:21:26.774Z,18.62
2022-09-26T05:22:31.876Z,19.62
2022-09-26T05:23:42.147Z,20.56
2022-09-26T05:24:46.020Z,19.50
2022-09-26T05:25:55.184Z,20.00
2022-09-26T05:26:55.938Z,22.94
2022-09-26T05:28:00.764Z,21.31
2022-09-26T05:29:08.490Z,22.25
2022-09-26T05:30:11.118Z,21.50
2022-09-26T05:31:15.837Z,21.50
2022-09-26T05:32:19.898Z,22.33
2022-09-26T05:33:23.804Z,20.44
2022-09-26T05:34:29.243Z,20.75
2022-09-26T05:35:34.798Z,20.06
2022-09-26T05:36:40.552Z,21.06
2022-09-26T05:37:47.364Z,22.44
2022-09-26T05:38:52.039Z,21.00
2022-09-26T05:39:57.615Z,21.60
2022-09-26T05:41:02.046Z,22.00
2022-09-26T05:42:07.358Z,22.19
2022-09-26T05:43:11.221Z,25.62
2022-09-26T05:44:15.063Z,46.88
2022-09-26T05:45:18.928Z,52.06
2022-09-26T05:46:24.042Z,62.67
2022-09-26T05:47:32.911Z,60.88
2022-09-26T05:48:41.017Z,47.50
2022-09-26T05:49:48.879Z,46.40
2022-09-26T05:50:53.480Z,35.40
2022-09-26T05:51:57.460Z,37.13
2022-09-26T05:53:02.683Z,29.63
2022-09-26T05:54:06.682Z,31.73
2022-09-26T05:55:10.723Z,31.31
2022-09-26T05:56:19.139Z,28.56
2022-09-26T05:57:22.851Z,24.67
2022-09-26T05:58:31.402Z,26.31
2022-09-26T05:59:36.827Z,29.40
2022-09-26T06:00:40.833Z,21.87
2022-09-26T06:01:46.486Z,24.94
2022-09-26T06:02:55.687Z,27.47
2022-09-26T06:03:59.660Z,30.88
2022-09-26T06:05:03.841Z,23.94
2022-09-26T06:06:10.689Z,21.44
2022-09-26T06:07:14.598Z,19.37
2022-09-26T06:08:18.462Z,20.50
2022-09-26T06:09:22.486Z,21.00
2022-09-26T06:10:26.523Z,21.19
2022-09-26T06:11:32.058Z,20.80
2022-09-26T06:12:47.577Z,21.31
2022-09-26T06:13:44.798Z,17.94
2022-09-26T06:14:49.925Z,21.06
2022-09-26T06:15:53.969Z,21.00
2022-09-26T06:17:01.929Z,20.31
2022-09-26T06:18:54.945Z,20.69
2022-09-26T06:19:18.436Z,20.25
2022-09-26T06:20:26.317Z,17.12
2022-09-26T06:21:34.755Z,17.19
2022-09-26T06:22:46.295Z,16.31
2022-09-26T06:26:30.533Z,15.31
2022-09-26T06:27:36.651Z,16.00
2022-09-26T06:28:40.593Z,16.50
2022-09-26T06:29:44.544Z,17.27
2022-09-26T06:30:48.475Z,14.19
2022-09-26T06:31:52.521Z,15.88
2022-09-26T06:32:56.526Z,18.81
2022-09-26T06:34:02.430Z,18.06
2022-09-26T06:35:07.519Z,17.44
2022-09-26T06:36:12.688Z,16.87
2022-09-26T06:37:16.615Z,18.44
2022-09-26T06:38:24.607Z,18.62
2022-09-26T06:39:27.651Z,18.93
2022-09-26T06:40:31.633Z,5.81
2022-09-26T06:41:35.595Z,18.62
2022-09-26T06:42:41.484Z,20.19
2022-09-26T06:43:52.311Z,19.50
2022-09-26T06:44:53.202Z,19.62
2022-09-26T06:45:57.140Z,19.56
2022-09-26T06:47:03.917Z,19.94
2022-09-26T06:48:21.032Z,18.56
2022-09-26T06:49:16.794Z,23.19
2022-09-26T06:50:23.178Z,23.44
2022-09-26T06:51:27.166Z,21.31
2022-09-26T06:52:32.459Z,24.00
2022-09-26T06:53:38.797Z,20.37
2022-09-26T06:54:47.396Z,19.87
2022-09-26T06:55:51.370Z,20.44
2022-09-26T06:57:02.870Z,18.75
2022-09-26T07:01:51.634Z,20.31
2022-09-26T07:02:00.564Z,18.19
2022-09-26T07:03:17.856Z,19.06
2022-09-26T07:04:24.894Z,15.94
2022-09-26T07:05:29.066Z,16.87
2022-09-26T07:06:32.971Z,18.69
2022-09-26T07:07:45.704Z,16.31
2022-09-26T07:09:02.394Z,14.81
2022-09-26T07:09:57.462Z,19.25
2022-09-26T07:11:31.172Z,18.00
2022-09-26T07:12:16.111Z,20.19
2022-09-26T07:13:19.791Z,17.07
2022-09-26T07:14:42.597Z,15.81
2022-09-26T07:15:52.463Z,14.13
2022-09-26T07:17:01.245Z,11.81
2022-09-26T07:18:06.626Z,18.69
2022-09-26T07:19:23.380Z,17.31
2022-09-26T07:20:50.326Z,16.19
2022-09-26T07:21:35.723Z,15.73
2022-09-26T07:22:53.816Z,15.50
2022-09-26T07:25:17.713Z,17.60
2022-09-26T07:26:22.245Z,17.87
2022-09-26T07:27:26.314Z,17.25
2022-09-26T07:28:30.163Z,16.87
2022-09-26T07:29:35.633Z,18.75
2022-09-26T07:30:39.697Z,20.00
2022-09-26T07:31:43.652Z,17.69
2022-09-26T07:32:47.589Z,15.73
2022-09-26T07:33:51.527Z,15.81
2022-09-26T07:36:40.511Z,14.44
2022-09-26T07:39:08.925Z,12.06
2022-09-26T07:40:14.577Z,14.69
2022-09-26T07:46:25.743Z,14.50
2022-09-26T07:59:41.034Z,14.81
2022-09-26T08:01:55.465Z,15.31
2022-09-26T08:03:02.786Z,14.63
2022-09-26T08:09:17.876Z,13.44
2022-09-26T08:10:23.358Z,12.37
2022-09-26T08:11:30.418Z,12.56
2022-09-26T08:12:39.412Z,13.56
2022-09-26T08:13:58.722Z,15.19
2022-09-26T08:15:12.692Z,16.73
2022-09-26T08:16:18.363Z,15.50
2022-09-26T08:17:24.005Z,14.06
2022-09-26T08:19:31.626Z,14.06
2022-09-26T08:19:39.780Z,13.56
2022-09-26T08:20:43.959Z,14.25
2022-09-26T08:22:05.886Z,13.38
2022-09-26T08:23:02.174Z,11.69
2022-09-26T08:24:07.507Z,12.75
2022-09-26T08:25:11.495Z,11.44
2022-09-26T08:26:16.998Z,12.31
2022-09-26T08:27:24.470Z,12.44
2022-09-26T08:28:28.412Z,12.88
2022-09-26T08:29:36.955Z,12.50
2022-09-26T08:30:42.038Z,11.38
2022-09-26T08:31:48.717Z,11.31
2022-09-26T08:32:58.590Z,12.88
2022-09-26T08:34:03.726Z,13.31
2022-09-26T08:35:11.032Z,12.63
2022-09-26T08:36:16.498Z,13.31
2022-09-26T08:37:29.916Z,15.25
2022-09-26T08:38:40.133Z,17.50
2022-09-26T08:39:49.580Z,15.50
2022-09-26T08:41:02.367Z,12.69
2022-09-26T08:42:25.891Z,13.81
2022-09-26T08:43:38.788Z,14.38
2022-09-26T08:45:11.102Z,15.94
2022-09-26T08:46:27.145Z,16.06
2022-09-26T08:47:57.119Z,17.19
2022-09-26T08:49:13.197Z,13.94
2022-09-26T08:50:36.016Z,13.31
2022-09-26T08:53:15.499Z,13.44
2022-09-26T08:54:28.130Z,14.00
2022-09-26T09:01:01.817Z,15.00
2022-09-26T09:08:26.525Z,9.81
2022-09-26T09:10:43.794Z,13.31
2022-09-26T09:12:10.209Z,15.38
2022-09-26T09:13:37.954Z,15.00
2022-09-26T09:14:54.241Z,15.27
2022-09-26T09:16:20.822Z,14.31
2022-09-26T09:17:50.784Z,12.37
2022-09-26T09:20:29.504Z,14.25
2022-09-26T09:28:15.226Z,12.25
2022-09-26T09:32:13.345Z,12.88
2022-09-26T09:33:24.405Z,11.88
2022-09-26T09:34:38.908Z,12.88
2022-09-26T09:35:59.231Z,11.06
2022-09-26T09:37:07.357Z,12.50
2022-09-26T09:38:17.876Z,10.31
2022-09-26T09:44:02.024Z,8.88
2022-09-26T09:46:49.830Z,8.31
2022-09-26T09:48:21.859Z,8.13
2022-09-26T09:49:38.788Z,8.25
2022-09-26T09:52:37.888Z,6.62
2022-09-26T09:54:04.032Z,5.44
2022-09-26T09:55:33.000Z,8.81
2022-09-26T09:56:54.735Z,5.87
2022-09-26T09:58:12.444Z,8.00
2022-09-26T09:59:29.436Z,4.31
2022-09-26T10:02:37.713Z,7.44
2022-09-26T10:05:31.951Z,6.25
2022-09-26T10:09:57.365Z,5.81
2022-09-26T10:11:43.008Z,6.19
2022-09-26T10:13:01.582Z,6.06
2022-09-26T10:14:05.095Z,6.94
2022-09-26T10:16:31.325Z,12.56
2022-09-26T10:19:16.055Z,5.44
2022-09-26T10:21:49.201Z,8.69
2022-09-26T10:26:17.768Z,7.69
2022-09-26T10:27:42.854Z,6.87
2022-09-26T10:30:22.141Z,6.12
2022-09-26T10:31:35.338Z,7.81
2022-09-26T10:32:50.726Z,8.00
2022-09-26T10:33:56.766Z,5.12
2022-09-26T10:35:24.017Z,6.44
2022-09-26T10:36:36.573Z,3.94
2022-09-26T10:37:41.938Z,6.19
2022-09-26T10:38:54.846Z,6.75
2022-09-26T10:40:22.681Z,6.00
2022-09-26T10:41:46.278Z,5.37
2022-09-26T10:42:47.261Z,6.75
2022-09-26T10:45:15.405Z,6.56
2022-09-26T10:49:33.042Z,6.75
2022-09-26T10:56:22.307Z,5.25
2022-09-26T10:58:53.671Z,7.56
2022-09-26T11:02:48.282Z,8.00
2022-09-26T11:04:37.556Z,8.88
2022-09-26T11:05:44.550Z,10.19
2022-09-26T11:06:50.121Z,8.38
2022-09-26T11:07:59.806Z,7.44
2022-09-26T11:09:22.998Z,7.19
2022-09-26T11:10:21.493Z,7.62
2022-09-26T11:11:50.315Z,7.44
2022-09-26T11:13:22.022Z,8.69
2022-09-26T11:14:32.201Z,9.19
2022-09-26T11:16:02.844Z,8.13
2022-09-26T11:17:06.200Z,5.69
2022-09-26T11:19:39.100Z,6.56
2022-09-26T11:23:29.934Z,6.12
2022-09-26T11:24:53.393Z,6.75
2022-09-26T11:26:24.687Z,8.13
2022-09-26T11:27:43.222Z,7.62
2022-09-26T11:28:52.836Z,7.37
2022-09-26T11:30:18.894Z,9.06
2022-09-26T11:31:29.154Z,7.75
2022-09-26T11:32:36.139Z,7.25
2022-09-26T11:33:47.003Z,7.25
2022-09-26T11:34:48.305Z,9.75
2022-09-26T11:36:19.847Z,7.75
2022-09-26T11:37:28.213Z,6.69
2022-09-26T11:40:29.068Z,5.75
2022-09-26T11:41:41.851Z,7.81
2022-09-26T11:43:09.581Z,8.56
2022-09-26T11:44:48.347Z,6.69
2022-09-26T11:46:11.019Z,6.00
2022-09-26T11:47:26.621Z,3.81
2022-09-26T11:48:56.596Z,7.06
2022-09-26T11:50:40.082Z,5.75
2022-09-26T11:52:23.295Z,7.06
2022-09-26T11:53:44.448Z,7.87
2022-09-26T11:56:51.410Z,6.56
2022-09-26T11:59:49.446Z,8.38
2022-09-26T12:15:05.210Z,6.19
2022-09-26T12:16:26.583Z,7.75
2022-09-26T12:17:49.770Z,6.75
2022-09-26T12:19:32.797Z,7.56
2022-09-26T12:20:51.484Z,7.69
2022-09-26T12:30:44.857Z,6.25
2022-09-26T12:31:50.834Z,4.19
2022-09-26T12:33:27.525Z,7.81
2022-09-26T12:34:55.311Z,8.50
2022-09-26T12:36:06.700Z,6.87
2022-09-26T12:37:52.669Z,6.19
2022-09-26T12:39:21.708Z,6.25
2022-09-26T12:43:37.875Z,6.31
2022-09-26T12:44:24.271Z,4.25
2022-09-26T12:45:39.447Z,6.12
2022-09-26T12:47:02.158Z,6.94
2022-09-26T12:48:36.284Z,6.25
2022-09-26T12:50:03.344Z,7.19
2022-09-26T12:51:15.968Z,6.75
2022-09-26T12:52:31.996Z,6.69
2022-09-26T12:55:14.345Z,6.81
2022-09-26T12:56:30.471Z,7.50
2022-09-26T12:58:03.059Z,7.69
2022-09-26T13:03:08.207Z,5.81
2022-09-26T13:05:23.655Z,5.25
2022-09-26T13:05:48.441Z,7.12
2022-09-26T13:07:19.754Z,6.44
2022-09-26T13:08:32.460Z,6.94
2022-09-26T13:09:48.135Z,7.56
2022-09-26T13:12:53.546Z,6.00
2022-09-26T13:14:04.499Z,6.37
2022-09-26T13:15:29.302Z,7.19
2022-09-26T13:16:52.664Z,6.94
2022-09-26T13:18:38.066Z,7.69
2022-09-26T13:19:27.424Z,7.00
2022-09-26T13:20:53.675Z,7.56
2022-09-26T13:22:27.802Z,6.50
2022-09-26T13:23:16.449Z,8.50
2022-09-26T13:24:41.996Z,8.50
2022-09-26T13:25:52.711Z,6.44
2022-09-26T13:27:01.262Z,7.75
2022-09-26T13:28:15.218Z,8.69
2022-09-26T13:29:28.682Z,7.81
2022-09-26T13:30:37.127Z,9.56
2022-09-26T13:31:45.768Z,11.06
2022-09-26T13:33:13.927Z,10.63
2022-09-26T13:34:16.052Z,11.94
2022-09-26T13:35:25.704Z,11.38
2022-09-26T13:36:37.139Z,10.44
2022-09-26T13:38:06.124Z,6.00
2022-09-26T13:39:12.300Z,10.44
2022-09-26T13:40:29.771Z,11.06
2022-09-26T13:41:59.890Z,11.50
2022-09-26T13:43:06.810Z,11.56
2022-09-26T13:44:30.306Z,11.06
2022-09-26T13:45:58.016Z,13.38
2022-09-26T13:47:34.037Z,14.07
2022-09-26T13:48:57.248Z,6.37
2022-09-26T13:50:07.221Z,11.63
2022-09-26T13:51:39.367Z,11.19
2022-09-26T13:52:48.241Z,9.69
2022-09-26T13:54:20.846Z,7.75
2022-09-26T13:55:30.913Z,12.06
2022-09-26T13:57:09.135Z,6.25
2022-09-26T13:58:16.653Z,10.63
2022-09-26T13:59:26.354Z,10.19
2022-09-26T14:00:42.068Z,9.94
2022-09-26T14:02:18.223Z,11.94
2022-09-26T14:03:25.383Z,11.69
2022-09-26T14:04:39.346Z,11.25
2022-09-26T14:05:46.287Z,9.94
2022-09-26T14:07:16.974Z,11.44
2022-09-26T14:09:17.622Z,13.69
2022-09-26T14:11:18.970Z,15.31
2022-09-26T14:12:34.057Z,15.06
2022-09-26T14:13:41.300Z,14.75
2022-09-26T14:14:49.938Z,8.69
2022-09-26T14:15:59.889Z,10.69
2022-09-26T14:17:21.891Z,10.63
2022-09-26T14:18:36.966Z,9.94
2022-09-26T14:19:52.166Z,10.25
2022-09-26T14:21:22.426Z,9.25
2022-09-26T14:22:34.160Z,5.62
2022-09-26T14:23:45.510Z,7.87
2022-09-26T14:24:50.976Z,9.50
2022-09-26T14:26:08.258Z,9.38
2022-09-26T14:27:19.575Z,10.56
2022-09-26T14:28:34.931Z,10.25
2022-09-26T14:30:02.950Z,8.81
2022-09-26T14:31:15.534Z,9.19
2022-09-26T14:32:30.025Z,8.44
2022-09-26T14:33:40.130Z,8.94
2022-09-26T14:34:57.546Z,10.94
2022-09-26T14:36:34.898Z,8.44
2022-09-26T14:38:35.921Z,10.25
2022-09-26T14:38:57.085Z,9.38
2022-09-26T14:40:12.117Z,8.63
2022-09-26T14:41:17.228Z,9.19
2022-09-26T14:42:30.448Z,10.94
2022-09-26T14:43:38.813Z,8.31
2022-09-26T14:44:48.916Z,9.75
2022-09-26T14:46:06.178Z,7.94
2022-09-26T14:47:14.876Z,12.00
2022-09-26T14:48:38.094Z,10.81
2022-09-26T14:49:44.806Z,9.44
2022-09-26T14:50:51.850Z,11.31
2022-09-26T14:52:01.948Z,5.56
2022-09-26T14:53:24.015Z,10.19
2022-09-26T14:54:41.134Z,11.06
2022-09-26T14:55:58.868Z,7.69
2022-09-26T14:57:10.001Z,9.00
2022-09-26T14:58:19.348Z,9.13
2022-09-26T14:59:37.403Z,9.75
2022-09-26T15:02:39.624Z,32.63
2022-09-26T15:03:40.880Z,11.38
2022-09-26T15:04:51.966Z,12.93
2022-09-26T15:05:59.127Z,9.94
2022-09-26T15:07:14.730Z,12.31
2022-09-26T15:08:39.612Z,11.19
2022-09-26T15:10:03.590Z,11.81
2022-09-26T15:11:04.757Z,6.81
2022-09-26T15:12:26.799Z,9.50
2022-09-26T15:13:36.348Z,9.63
2022-09-26T15:14:44.869Z,10.94
2022-09-26T15:16:00.530Z,9.13
2022-09-26T15:17:06.861Z,10.19
2022-09-26T15:18:30.080Z,9.81
2022-09-26T15:19:36.937Z,11.19
2022-09-26T15:20:44.013Z,7.19
2022-09-26T15:22:09.771Z,8.31
2022-09-26T15:25:26.626Z,10.19
2022-09-26T15:25:47.821Z,9.31
2022-09-26T15:28:56.494Z,9.50
2022-09-26T15:30:14.320Z,10.88
2022-09-26T15:31:42.406Z,11.56
2022-09-26T15:32:48.827Z,11.00
2022-09-26T15:34:01.566Z,10.38
2022-09-26T15:35:06.552Z,11.44
2022-09-26T15:36:13.201Z,11.81
2022-09-26T15:37:26.062Z,10.38
2022-09-26T15:38:33.301Z,13.13
2022-09-26T15:39:40.042Z,11.69
2022-09-26T15:40:46.251Z,11.56
2022-09-26T15:41:50.493Z,13.38
2022-09-26T15:43:12.339Z,12.63
2022-09-26T15:44:22.203Z,12.06
2022-09-26T15:45:56.018Z,14.94
2022-09-26T15:47:02.932Z,11.44
2022-09-26T15:48:26.679Z,12.75
2022-09-26T15:49:28.671Z,15.00
2022-09-26T15:50:44.737Z,12.44
2022-09-26T15:51:51.640Z,12.69
2022-09-26T15:53:04.003Z,13.94
2022-09-26T15:54:14.544Z,13.60
2022-09-26T15:55:28.203Z,12.75
2022-09-26T15:56:37.693Z,13.00
2022-09-26T15:57:42.826Z,15.31
2022-09-26T15:59:02.307Z,13.31
2022-09-26T16:00:09.793Z,13.25
2022-09-26T16:01:18.470Z,17.62
2022-09-26T16:02:31.239Z,12.88
2022-09-26T16:03:38.238Z,16.06
2022-09-26T16:04:42.242Z,12.81
2022-09-26T16:05:48.970Z,20.56
2022-09-26T16:07:08.130Z,15.44
2022-09-26T16:08:20.630Z,15.25
2022-09-26T16:09:39.128Z,14.40
2022-09-26T16:10:43.239Z,12.81
2022-09-26T16:11:51.439Z,14.06
2022-09-26T16:12:59.641Z,16.12
2022-09-26T16:14:12.493Z,14.19
2022-09-26T16:15:18.382Z,14.44
2022-09-26T16:18:30.079Z,14.50
2022-09-26T16:19:52.517Z,11.94
2022-09-26T16:20:25.444Z,15.75
2022-09-26T16:21:32.083Z,15.88
2022-09-26T16:22:42.154Z,17.44
2022-09-26T16:23:48.852Z,15.69
2022-09-26T16:24:52.847Z,17.12
2022-09-26T16:26:03.689Z,17.37
2022-09-26T16:27:06.880Z,17.81
2022-09-26T16:28:21.954Z,14.07
2022-09-26T16:29:42.948Z,18.12
2022-09-26T16:31:08.237Z,19.81
2022-09-26T16:32:19.563Z,17.31
2022-09-26T16:33:31.223Z,15.94
2022-09-26T16:34:36.338Z,17.87
2022-09-26T16:35:49.287Z,20.12
2022-09-26T16:36:54.953Z,13.75
2022-09-26T16:38:05.596Z,15.50
2022-09-26T16:39:26.198Z,15.44
2022-09-26T16:43:17.148Z,15.00
2022-09-26T16:44:36.279Z,14.19
2022-09-26T16:45:51.451Z,15.50
2022-09-26T16:46:58.724Z,14.20
2022-09-26T16:49:53.778Z,12.19
2022-09-26T16:51:12.749Z,12.63
2022-09-26T16:52:42.915Z,15.50
2022-09-26T16:54:04.737Z,13.75
2022-09-26T16:55:10.459Z,13.69
2022-09-26T16:56:19.192Z,14.25
2022-09-26T16:57:27.795Z,13.38
2022-09-26T16:58:31.895Z,13.94
2022-09-26T16:59:49.258Z,13.81
2022-09-26T17:00:50.000Z,13.13
2022-09-26T17:01:54.769Z,12.56
2022-09-26T17:02:59.197Z,12.50
2022-09-26T17:04:07.116Z,12.56
2022-09-26T17:05:29.852Z,11.38
2022-09-26T17:06:39.121Z,11.19
2022-09-26T17:16:50.352Z,15.88
2022-09-26T17:18:25.615Z,15.06
2022-09-26T17:20:59.417Z,12.50
2022-09-26T17:23:41.727Z,15.94
2022-09-26T17:24:57.534Z,12.56
2022-09-26T17:26:03.275Z,15.63
2022-09-26T17:27:11.530Z,15.94
2022-09-26T17:29:58.145Z,12.56
2022-09-26T17:30:15.918Z,15.56
2022-09-26T17:31:11.835Z,14.56
2022-09-26T17:32:46.332Z,15.06
2022-09-26T17:33:57.593Z,15.44
2022-09-26T17:35:07.137Z,14.75
2022-09-26T17:36:26.132Z,14.06
2022-09-26T17:37:34.640Z,14.81
2022-09-26T17:38:53.671Z,15.69
2022-09-26T17:40:20.799Z,16.12
2022-09-26T17:41:05.432Z,14.56
2022-09-26T17:42:10.632Z,13.56
2022-09-26T17:43:16.327Z,15.25
2022-09-26T17:44:31.878Z,14.06
2022-09-26T17:45:42.765Z,12.94
2022-09-26T17:46:58.899Z,13.06
2022-09-26T17:48:06.792Z,12.81
2022-09-26T17:49:25.003Z,14.75
2022-09-26T17:50:35.292Z,15.31
2022-09-26T17:51:45.646Z,12.56
2022-09-26T17:53:03.833Z,14.19
2022-09-26T17:54:13.072Z,13.06
2022-09-26T17:55:21.941Z,12.37
2022-09-26T18:10:33.521Z,18.69
2022-09-26T18:11:39.549Z,24.47
2022-09-26T18:12:49.292Z,18.44
2022-09-26T18:14:02.327Z,19.06
2022-09-26T18:15:12.583Z,15.94
2022-09-26T18:16:20.029Z,15.44
2022-09-26T18:17:34.701Z,15.00
2022-09-26T18:19:09.333Z,16.00
2022-09-26T18:20:04.274Z,14.00
2022-09-26T18:21:01.849Z,16.06
2022-09-26T18:23:44.930Z,14.44
2022-09-26T18:27:53.883Z,17.69
2022-09-26T18:30:20.547Z,15.75
2022-09-26T18:31:44.353Z,12.94
2022-09-26T18:32:53.738Z,15.40
2022-09-26T18:33:58.908Z,11.81
2022-09-26T18:35:16.472Z,22.94
2022-09-26T18:36:24.049Z,19.31
2022-09-26T18:37:29.782Z,11.12
2022-09-26T18:38:56.604Z,17.12
2022-09-26T18:40:25.709Z,12.25
2022-09-26T18:43:22.995Z,19.31
2022-09-26T18:45:59.641Z,22.25
2022-09-26T18:47:16.733Z,29.13
2022-09-26T18:48:34.459Z,28.93
2022-09-26T18:49:44.578Z,33.06
2022-09-26T18:53:39.931Z,32.31
2022-09-26T18:54:10.706Z,34.19
2022-09-26T18:54:48.820Z,28.94
2022-09-26T18:56:07.860Z,26.60
2022-09-26T18:57:18.592Z,29.56
2022-09-26T18:58:25.620Z,28.25
2022-09-26T18:59:37.181Z,24.81
2022-09-26T19:00:45.937Z,26.81
2022-09-26T19:01:56.148Z,29.87
2022-09-26T19:03:00.381Z,34.06
2022-09-26T19:04:10.541Z,48.00
2022-09-26T19:05:57.912Z,36.81
2022-09-26T19:19:52.014Z,15.06
2022-09-26T19:21:11.322Z,16.94
2022-09-26T19:22:15.712Z,16.44
2022-09-26T19:23:17.295Z,15.75
2022-09-26T19:27:24.721Z,28.00
2022-09-26T19:28:33.407Z,25.62
2022-09-26T19:29:49.280Z,28.07
2022-09-26T19:30:57.381Z,24.75
2022-09-26T19:32:01.981Z,26.81
2022-09-26T19:33:06.221Z,22.25
2022-09-26T19:34:22.988Z,20.06
2022-09-26T19:35:46.185Z,18.25
2022-09-26T19:36:57.872Z,16.19
2022-09-26T19:38:02.447Z,13.00
2022-09-26T19:39:15.875Z,15.69
2022-09-26T19:40:23.589Z,16.75
2022-09-26T19:41:29.389Z,18.19
2022-09-26T19:42:38.721Z,16.50
2022-09-26T19:43:43.922Z,14.94
2022-09-26T19:44:48.058Z,18.56
2022-09-26T19:45:56.272Z,15.88
2022-09-26T19:47:06.139Z,17.13
2022-09-26T19:48:13.179Z,17.00
2022-09-26T19:49:19.234Z,16.56
2022-09-26T19:50:26.956Z,17.73
2022-09-26T19:52:14.228Z,17.69
2022-09-26T19:52:41.524Z,15.88
2022-09-26T19:53:47.272Z,17.06
2022-09-26T19:54:59.165Z,18.69
2022-09-26T19:56:08.051Z,18.06
2022-09-26T20:10:16.627Z,20.50
2022-09-26T20:11:20.678Z,20.20
2022-09-26T20:12:24.531Z,15.94
2022-09-26T20:13:28.427Z,16.19
2022-09-26T20:14:32.438Z,15.81
2022-09-26T20:15:36.446Z,17.62
2022-09-26T20:16:44.501Z,18.12
2022-09-26T20:17:52.667Z,17.40
2022-09-26T20:18:58.562Z,17.31
2022-09-26T20:20:12.070Z,16.87
2022-09-26T20:21:18.680Z,15.88
2022-09-26T20:24:09.467Z,14.94
2022-09-26T20:25:26.570Z,8.75
2022-09-26T20:26:27.350Z,16.31
2022-09-26T20:27:31.350Z,15.25
2022-09-26T20:28:35.192Z,20.25
2022-09-26T20:29:39.131Z,17.19
2022-09-26T20:30:44.785Z,15.38